createdAt,value
2023-05-14T00:01:33.730Z,19.84
2023-05-14T00:04:03.391Z,19.80
2023-05-14T00:06:31.923Z,19.85
2023-05-14T00:09:00.535Z,19.91
2023-05-14T00:11:28.934Z,19.95
2023-05-14T00:13:57.352Z,19.58
2023-05-14T00:16:25.850Z,19.98
2023-05-14T00:18:54.443Z,19.51
2023-05-14T00:21:22.859Z,20.09
2023-05-14T00:23:51.288Z,19.88
2023-05-14T00:26:21.415Z,19.33
2023-05-14T00:28:49.923Z,19.99
2023-05-14T00:31:18.348Z,20.24
2023-05-14T00:33:46.865Z,20.01
2023-05-14T00:36:15.293Z,19.38
2023-05-14T00:38:43.724Z,19.22
2023-05-14T00:41:12.238Z,18.08
2023-05-14T00:43:40.890Z,19.48
2023-05-14T00:46:09.493Z,19.64
2023-05-14T00:48:38.101Z,18.87
2023-05-14T00:51:07.804Z,18.07
2023-05-14T00:53:36.662Z,18.13
2023-05-14T00:56:05.623Z,18.77
2023-05-14T00:58:34.264Z,19.44
2023-05-14T01:01:03.946Z,19.04
2023-05-14T01:03:33.680Z,18.43
2023-05-14T01:06:26.404Z,19.06
2023-05-14T01:09:13.631Z,19.11
2023-05-14T01:12:02.826Z,19.38
2023-05-14T01:14:42.922Z,18.69
2023-05-14T01:17:15.449Z,18.76
2023-05-14T01:19:45.261Z,17.76
2023-05-14T01:22:14.275Z,18.20
2023-05-14T01:24:42.760Z,18.04
2023-05-14T01:27:43.490Z,18.30
2023-05-14T01:30:21.460Z,18.71
2023-05-14T01:32:53.798Z,19.29
2023-05-14T01:35:28.845Z,19.01
2023-05-14T01:38:01.118Z,18.67
2023-05-14T01:40:30.472Z,18.95
2023-05-14T01:42:59.717Z,18.09
2023-05-14T01:45:28.132Z,18.62
2023-05-14T01:47:57.339Z,18.91
2023-05-14T01:50:26.002Z,18.73
2023-05-14T01:52:56.538Z,18.91
2023-05-14T01:55:25.695Z,18.86
2023-05-14T01:57:54.377Z,17.61
2023-05-14T02:00:25.867Z,18.34
2023-05-14T02:02:54.611Z,17.77
2023-05-14T02:05:24.003Z,17.65
2023-05-14T02:07:52.509Z,18.22
2023-05-14T02:10:21.180Z,18.60
2023-05-14T02:12:49.795Z,18.13
2023-05-14T02:15:18.361Z,18.63
2023-05-14T02:17:46.915Z,18.64
2023-05-14T02:20:15.526Z,18.70
2023-05-14T02:22:46.108Z,17.41
2023-05-14T02:25:14.788Z,18.33
2023-05-14T02:27:43.191Z,18.23
2023-05-14T02:30:12.582Z,17.88
2023-05-14T02:32:41.364Z,17.56
2023-05-14T02:35:10.066Z,17.90
2023-05-14T02:37:38.486Z,17.97
2023-05-14T02:40:07.702Z,17.90
2023-05-14T02:42:36.151Z,16.98
2023-05-14T02:45:05.028Z,17.32
2023-05-14T02:47:36.102Z,17.51
2023-05-14T02:50:06.808Z,17.98
2023-05-14T02:52:35.748Z,18.27
2023-05-14T02:55:04.873Z,18.22
2023-05-14T02:57:33.338Z,18.32
2023-05-14T03:00:01.770Z,17.57
2023-05-14T03:02:31.099Z,16.96
2023-05-14T03:05:00.087Z,17.33
2023-05-14T03:07:28.561Z,17.56
2023-05-14T03:09:57.157Z,17.97
2023-05-14T03:12:25.680Z,17.80
2023-05-14T03:14:54.132Z,17.82
2023-05-14T03:17:22.999Z,17.71
2023-05-14T03:19:51.456Z,17.00
2023-05-14T03:22:19.957Z,17.13
2023-05-14T03:24:48.376Z,17.05
2023-05-14T03:27:16.837Z,16.39
2023-05-14T03:29:45.309Z,16.90
2023-05-14T03:32:13.873Z,16.99
2023-05-14T03:34:42.455Z,17.18
2023-05-14T03:37:11.397Z,17.12
2023-05-14T03:39:40.002Z,17.61
2023-05-14T03:42:08.420Z,17.91
2023-05-14T03:44:36.800Z,17.31
2023-05-14T03:47:05.373Z,17.15
2023-05-14T03:49:35.132Z,16.65
2023-05-14T03:52:04.847Z,16.87
2023-05-14T03:54:33.387Z,16.70
2023-05-14T03:57:01.969Z,15.89
2023-05-14T03:59:30.492Z,16.58
2023-05-14T04:01:58.846Z,16.68
2023-05-14T04:04:27.556Z,16.08
2023-05-14T04:06:56.216Z,15.01
2023-05-14T04:09:24.729Z,15.70
2023-05-14T04:11:53.273Z,16.14
2023-05-14T04:14:21.789Z,16.64
2023-05-14T04:16:50.344Z,17.08
2023-05-14T04:19:19.093Z,17.16
2023-05-14T04:21:47.683Z,16.41
2023-05-14T04:24:17.309Z,17.37
2023-05-14T04:26:45.794Z,16.67
2023-05-14T04:29:14.185Z,16.92
2023-05-14T04:31:43.177Z,16.97
2023-05-14T04:34:11.921Z,17.01
2023-05-14T04:36:40.407Z,17.35
2023-05-14T04:39:12.444Z,17.20
2023-05-14T04:41:40.986Z,17.76
2023-05-14T04:44:09.583Z,17.50
2023-05-14T04:46:38.083Z,16.69
2023-05-14T04:49:06.657Z,17.22
2023-05-14T04:51:35.118Z,17.39
2023-05-14T04:54:03.700Z,17.49
2023-05-14T04:56:32.230Z,17.85
2023-05-14T04:59:00.746Z,17.59
2023-05-14T05:01:29.379Z,18.17
2023-05-14T05:03:58.174Z,16.86
2023-05-14T05:06:26.800Z,17.92
2023-05-14T05:08:55.851Z,17.72
2023-05-14T05:11:24.325Z,17.90
2023-05-14T05:13:52.838Z,18.60
2023-05-14T05:16:21.301Z,18.10
2023-05-14T05:18:49.813Z,15.73
2023-05-14T05:21:18.386Z,18.23
2023-05-14T05:23:46.772Z,19.16
2023-05-14T05:26:15.784Z,19.08
2023-05-14T05:28:44.203Z,19.07
2023-05-14T05:31:12.800Z,18.29
2023-05-14T05:33:41.335Z,18.57
2023-05-14T05:36:09.762Z,18.76
2023-05-14T05:38:38.169Z,18.54
2023-05-14T05:41:06.849Z,18.03
2023-05-14T05:43:35.506Z,16.36
2023-05-14T05:46:04.021Z,17.87
2023-05-14T05:48:32.532Z,18.00
2023-05-14T05:51:01.158Z,17.50
2023-05-14T05:53:29.581Z,17.85
2023-05-14T05:55:58.024Z,17.49
2023-05-14T05:58:26.663Z,17.92
2023-05-14T06:00:57.523Z,18.38
2023-05-14T06:03:29.045Z,18.85
2023-05-14T06:05:57.875Z,19.15
2023-05-14T06:08:26.570Z,19.23
2023-05-14T06:10:55.016Z,19.49
2023-05-14T06:13:23.597Z,19.15
2023-05-14T06:15:52.159Z,19.14
2023-05-14T06:18:20.793Z,18.43
2023-05-14T06:20:49.312Z,18.97
2023-05-14T06:23:17.825Z,18.80
2023-05-14T06:25:46.737Z,18.93
2023-05-14T06:28:16.053Z,18.82
2023-05-14T06:30:44.558Z,17.84
2023-05-14T06:33:13.458Z,18.35
2023-05-14T06:35:42.169Z,18.60
2023-05-14T06:38:10.708Z,19.00
2023-05-14T06:40:40.318Z,17.04
2023-05-14T06:43:11.980Z,18.72
2023-05-14T06:45:40.663Z,19.54
2023-05-14T06:48:10.218Z,19.14
2023-05-14T06:50:39.051Z,17.74
2023-05-14T06:53:07.760Z,18.46
2023-05-14T06:55:36.499Z,18.45
2023-05-14T06:58:08.582Z,19.00
2023-05-14T07:00:37.002Z,17.25
2023-05-14T07:03:05.563Z,17.64
2023-05-14T07:05:34.051Z,18.60
2023-05-14T07:08:02.462Z,18.58
2023-05-14T07:10:30.935Z,17.85
2023-05-14T07:12:59.258Z,17.56
2023-05-14T07:15:27.776Z,19.16
2023-05-14T07:17:56.293Z,18.77
2023-05-14T07:20:25.259Z,17.70
2023-05-14T07:22:54.059Z,17.58
2023-05-14T07:25:24.483Z,18.71
2023-05-14T07:27:52.917Z,18.35
2023-05-14T07:30:21.871Z,19.87
2023-05-14T07:32:50.563Z,19.14
2023-05-14T07:35:19.092Z,18.85
2023-05-14T07:37:47.392Z,19.52
2023-05-14T07:40:16.800Z,20.13
2023-05-14T07:42:45.111Z,20.21
2023-05-14T07:45:13.501Z,19.03
2023-05-14T07:47:41.924Z,19.89
2023-05-14T07:50:10.922Z,18.79
2023-05-14T07:52:39.477Z,17.89
2023-05-14T07:55:08.504Z,17.48
2023-05-14T07:57:37.478Z,19.37
2023-05-14T08:00:08.558Z,17.75
2023-05-14T08:02:36.975Z,18.12
2023-05-14T08:05:05.630Z,19.14
2023-05-14T08:07:34.024Z,18.30
2023-05-14T08:10:03.529Z,18.69
2023-05-14T08:12:32.669Z,18.78
2023-05-14T08:15:01.022Z,19.00
2023-05-14T08:17:30.063Z,19.54
2023-05-14T08:19:58.526Z,20.28
2023-05-14T08:22:28.180Z,20.63
2023-05-14T08:24:56.771Z,20.93
2023-05-14T08:27:26.475Z,21.01
2023-05-14T08:29:54.894Z,20.60
2023-05-14T08:32:24.303Z,19.52
2023-05-14T08:34:52.850Z,21.49
2023-05-14T08:37:21.430Z,22.31
2023-05-14T08:39:49.737Z,21.80
2023-05-14T08:42:20.690Z,21.20
2023-05-14T08:44:52.561Z,21.49
2023-05-14T08:47:22.112Z,19.81
2023-05-14T08:49:58.722Z,21.33
2023-05-14T08:52:28.175Z,19.73
2023-05-14T08:54:57.754Z,20.35
2023-05-14T08:57:26.779Z,19.95
2023-05-14T08:59:55.266Z,21.38
2023-05-14T09:02:24.828Z,20.56
2023-05-14T09:04:58.100Z,20.54
2023-05-14T09:07:26.827Z,21.08
2023-05-14T09:09:55.636Z,21.45
2023-05-14T09:12:24.226Z,20.75
2023-05-14T09:14:52.549Z,21.91
2023-05-14T09:17:21.025Z,21.50
2023-05-14T09:19:49.597Z,20.79
2023-05-14T09:22:18.431Z,19.98
2023-05-14T09:24:47.409Z,20.77
2023-05-14T09:27:18.812Z,20.85
2023-05-14T09:29:47.628Z,20.42
2023-05-14T09:32:16.068Z,21.83
2023-05-14T09:34:44.508Z,21.95
2023-05-14T09:37:12.950Z,21.55
2023-05-14T09:39:41.438Z,22.65
2023-05-14T09:42:09.788Z,22.00
2023-05-14T09:44:38.776Z,22.99
2023-05-14T09:47:07.169Z,23.84
2023-05-14T09:49:35.722Z,23.07
2023-05-14T09:52:06.456Z,23.36
2023-05-14T09:54:35.871Z,22.99
2023-05-14T09:57:04.382Z,23.66
2023-05-14T09:59:32.910Z,21.90
2023-05-14T10:02:01.834Z,22.50
2023-05-14T10:04:30.165Z,22.24
2023-05-14T10:06:59.780Z,21.34
2023-05-14T10:09:29.684Z,22.62
2023-05-14T10:11:59.439Z,22.05
2023-05-14T10:14:33.536Z,20.91
2023-05-14T10:17:03.414Z,20.17
2023-05-14T10:19:33.417Z,22.04
2023-05-14T10:22:05.865Z,20.77
2023-05-14T10:24:34.439Z,21.58
2023-05-14T10:27:02.916Z,21.61
2023-05-14T10:29:34.888Z,20.79
2023-05-14T10:32:07.454Z,21.60
2023-05-14T10:34:43.885Z,22.60
2023-05-14T10:37:16.964Z,23.86
2023-05-14T10:39:58.180Z,22.26
2023-05-14T10:42:39.710Z,22.45
2023-05-14T10:45:09.212Z,24.31
2023-05-14T10:47:47.308Z,24.96
2023-05-14T10:50:15.913Z,22.62
2023-05-14T10:52:45.594Z,22.62
2023-05-14T10:55:14.877Z,23.47
2023-05-14T10:57:46.856Z,23.07
2023-05-14T11:00:15.818Z,24.64
2023-05-14T11:02:44.848Z,24.56
2023-05-14T11:05:15.570Z,24.00
2023-05-14T11:07:45.448Z,24.28
2023-05-14T11:10:15.217Z,25.57
2023-05-14T11:12:44.887Z,24.48
2023-05-14T11:15:14.626Z,22.84
2023-05-14T11:17:44.238Z,24.37
2023-05-14T11:20:13.135Z,23.96
2023-05-14T11:22:42.572Z,23.59
2023-05-14T11:25:14.553Z,22.56
2023-05-14T11:27:44.233Z,23.82
2023-05-14T11:30:13.633Z,24.34
2023-05-14T11:32:43.510Z,25.67
2023-05-14T11:35:12.468Z,25.77
2023-05-14T11:37:40.995Z,24.72
2023-05-14T11:40:18.960Z,24.91
2023-05-14T11:42:47.383Z,23.00
2023-05-14T11:45:24.423Z,24.31
2023-05-14T11:47:54.091Z,22.77
2023-05-14T11:50:23.337Z,25.09
2023-05-14T11:52:56.552Z,25.75
2023-05-14T11:55:24.936Z,26.41
2023-05-14T11:57:53.771Z,25.17
2023-05-14T12:00:24.034Z,24.68
2023-05-14T12:02:52.874Z,26.43
2023-05-14T12:05:21.799Z,26.03
2023-05-14T12:07:50.065Z,26.08
2023-05-14T12:10:18.530Z,26.22
2023-05-14T12:12:47.964Z,25.74
2023-05-14T12:15:17.232Z,25.05
2023-05-14T12:17:52.080Z,25.31
2023-05-14T12:20:20.711Z,26.06
2023-05-14T12:22:49.141Z,26.12
2023-05-14T12:25:17.563Z,26.10
2023-05-14T12:27:45.909Z,25.28
2023-05-14T12:35:14.850Z,25.59
2023-05-14T12:37:43.391Z,25.68
2023-05-14T12:40:11.904Z,26.22
2023-05-14T12:42:40.247Z,26.25
2023-05-14T12:45:08.920Z,25.78
2023-05-14T12:47:37.515Z,25.97
2023-05-14T12:50:06.504Z,24.40
2023-05-14T12:52:39.371Z,25.59
2023-05-14T12:55:09.267Z,25.77
2023-05-14T12:57:39.058Z,25.57
2023-05-14T13:00:09.887Z,25.78
2023-05-14T13:02:42.516Z,25.62
2023-05-14T13:05:12.014Z,25.10
2023-05-14T13:07:41.040Z,25.33
2023-05-14T13:10:12.017Z,26.52
2023-05-14T13:12:40.637Z,25.71
2023-05-14T13:15:09.517Z,25.72
2023-05-14T13:17:37.988Z,25.49
2023-05-14T13:20:07.159Z,26.04
2023-05-14T13:22:35.745Z,24.75
2023-05-14T13:25:04.853Z,24.60
2023-05-14T13:27:33.818Z,24.57
2023-05-14T13:30:02.712Z,25.09
2023-05-14T13:32:31.253Z,24.33
2023-05-14T13:34:59.649Z,24.53
2023-05-14T13:37:28.661Z,25.53
2023-05-14T13:39:57.271Z,24.83
2023-05-14T13:42:25.652Z,23.21
2023-05-14T13:44:53.959Z,24.24
2023-05-14T13:47:22.443Z,23.82
2023-05-14T13:49:51.892Z,24.12
2023-05-14T13:52:20.493Z,25.57
2023-05-14T13:54:53.116Z,26.27
2023-05-14T13:57:22.011Z,25.74
2023-05-14T13:59:50.437Z,25.11
2023-05-14T14:02:18.901Z,23.99
2023-05-14T14:04:47.377Z,23.46
2023-05-14T14:07:15.733Z,25.03
2023-05-14T14:09:45.101Z,26.43
2023-05-14T14:12:13.513Z,24.84
2023-05-14T14:14:41.923Z,23.68
2023-05-14T14:17:10.217Z,24.69
2023-05-14T14:19:39.612Z,25.55
2023-05-14T14:22:07.977Z,24.88
2023-05-14T14:24:36.316Z,25.16
2023-05-14T14:27:05.029Z,24.73
2023-05-14T14:29:34.376Z,24.61
2023-05-14T14:32:03.341Z,25.17
2023-05-14T14:34:31.805Z,23.93
2023-05-14T14:37:00.527Z,24.67
2023-05-14T14:39:29.290Z,22.72
2023-05-14T14:41:57.716Z,22.79
2023-05-14T14:44:26.457Z,23.63
2023-05-14T14:46:54.967Z,22.94
2023-05-14T14:49:24.321Z,23.06
2023-05-14T14:51:52.781Z,23.91
2023-05-14T14:54:24.268Z,23.66
2023-05-14T14:56:53.416Z,24.22
2023-05-14T14:59:21.947Z,23.94
2023-05-14T15:01:50.631Z,24.05
2023-05-14T15:04:19.302Z,22.70
2023-05-14T15:06:47.595Z,24.55
2023-05-14T15:09:16.412Z,23.72
2023-05-14T15:11:44.826Z,22.49
2023-05-14T15:14:13.196Z,24.08
2023-05-14T15:16:43.669Z,24.02
2023-05-14T15:19:13.202Z,23.04
2023-05-14T15:21:41.641Z,23.68
2023-05-14T15:24:16.517Z,25.23
2023-05-14T15:26:45.998Z,25.16
2023-05-14T15:29:15.518Z,22.83
2023-05-14T15:31:45.063Z,22.80
2023-05-14T15:34:13.451Z,23.95
2023-05-14T15:36:42.797Z,23.69
2023-05-14T15:39:11.262Z,23.85
2023-05-14T15:41:39.809Z,23.89
2023-05-14T15:44:08.418Z,24.63
2023-05-14T15:46:38.056Z,25.27
2023-05-14T15:49:07.755Z,24.63
2023-05-14T15:51:36.191Z,24.13
2023-05-14T15:54:04.976Z,24.54
2023-05-14T15:56:34.566Z,24.95
2023-05-14T15:59:05.246Z,23.34
2023-05-14T16:01:33.696Z,24.98
2023-05-14T16:04:02.150Z,24.28
2023-05-14T16:06:31.042Z,24.48
2023-05-14T16:09:00.619Z,24.08
2023-05-14T16:11:30.041Z,24.24
2023-05-14T16:13:58.633Z,24.76
2023-05-14T16:16:27.467Z,23.13
2023-05-14T16:18:55.965Z,22.40
2023-05-14T16:21:24.411Z,24.47
2023-05-14T16:23:52.814Z,24.89
2023-05-14T16:26:22.657Z,24.60
2023-05-14T16:28:51.263Z,23.36
2023-05-14T16:31:23.696Z,23.94
2023-05-14T16:33:52.174Z,21.93
2023-05-14T16:36:22.262Z,22.11
2023-05-14T16:39:06.762Z,22.76
2023-05-14T16:41:36.330Z,23.64
2023-05-14T16:44:05.075Z,23.02
2023-05-14T16:46:34.025Z,24.14
2023-05-14T16:49:03.613Z,24.02
2023-05-14T16:51:33.145Z,24.27
2023-05-14T16:54:03.032Z,23.64
2023-05-14T16:56:32.477Z,24.12
2023-05-14T16:59:00.962Z,23.83
2023-05-14T17:01:30.487Z,23.71
2023-05-14T17:03:59.010Z,24.28
2023-05-14T17:06:27.485Z,23.87
2023-05-14T17:09:00.487Z,22.66
2023-05-14T17:11:29.280Z,23.04
2023-05-14T17:13:57.908Z,24.17
2023-05-14T17:16:27.120Z,22.44
2023-05-14T17:18:55.893Z,23.33
2023-05-14T17:21:24.626Z,22.52
2023-05-14T17:23:53.195Z,23.23
2023-05-14T17:26:24.474Z,23.76
2023-05-14T17:28:53.049Z,22.75
2023-05-14T17:31:22.329Z,23.65
2023-05-14T17:33:50.959Z,22.90
2023-05-14T17:36:19.406Z,22.23
2023-05-14T17:38:48.142Z,23.08
2023-05-14T17:41:16.519Z,22.35
2023-05-14T17:43:44.835Z,21.35
2023-05-14T17:46:15.250Z,21.63
2023-05-14T17:48:43.925Z,22.79
2023-05-14T17:51:12.429Z,22.51
2023-05-14T17:53:43.567Z,22.41
2023-05-14T17:56:12.377Z,19.37
2023-05-14T17:58:41.344Z,20.95
2023-05-14T18:01:10.030Z,19.85
2023-05-14T18:03:39.701Z,19.67
2023-05-14T18:06:08.423Z,19.67
2023-05-14T18:08:36.900Z,19.30
2023-05-14T18:11:06.789Z,20.16
2023-05-14T18:13:35.347Z,20.05
2023-05-14T18:16:06.780Z,21.03
2023-05-14T18:18:35.326Z,19.86
2023-05-14T18:21:03.908Z,20.86
2023-05-14T18:23:32.297Z,21.43
2023-05-14T18:26:01.480Z,20.99
2023-05-14T18:28:29.943Z,21.62
2023-05-14T18:30:58.470Z,20.26
2023-05-14T18:33:28.232Z,19.23
2023-05-14T18:35:56.856Z,20.32
2023-05-14T18:38:25.631Z,19.38
2023-05-14T18:40:53.988Z,19.74
2023-05-14T18:43:22.565Z,19.54
2023-05-14T18:45:50.950Z,19.92
2023-05-14T18:48:19.482Z,20.17
2023-05-14T18:50:47.994Z,20.04
2023-05-14T18:53:16.458Z,19.62
2023-05-14T18:55:45.318Z,19.85
2023-05-14T18:58:14.877Z,19.27
2023-05-14T19:00:43.406Z,18.45
2023-05-14T19:03:11.874Z,18.15
2023-05-14T19:05:43.524Z,18.69
2023-05-14T19:08:12.063Z,19.58
2023-05-14T19:10:40.585Z,18.76
2023-05-14T19:13:09.199Z,17.68
2023-05-14T19:15:37.927Z,17.35
2023-05-14T19:18:06.644Z,18.48
2023-05-14T19:20:35.215Z,18.38
2023-05-14T19:23:03.618Z,17.53
2023-05-14T19:25:32.055Z,19.03
2023-05-14T19:28:01.756Z,18.83
2023-05-14T19:30:30.424Z,19.72
2023-05-14T19:32:59.084Z,18.69
2023-05-14T19:35:27.867Z,17.52
2023-05-14T19:37:56.384Z,18.78
2023-05-14T19:40:24.994Z,18.45
2023-05-14T19:42:54.513Z,18.91
2023-05-14T19:45:23.077Z,18.95
2023-05-14T19:47:51.777Z,18.37
2023-05-14T19:50:20.135Z,16.57
2023-05-14T19:52:48.613Z,17.78
2023-05-14T19:55:16.959Z,18.88
2023-05-14T19:57:45.415Z,19.26
2023-05-14T20:00:14.907Z,19.67
2023-05-14T20:02:43.513Z,18.85
2023-05-14T20:05:12.091Z,18.02
2023-05-14T20:07:40.684Z,18.76
2023-05-14T20:10:11.317Z,19.88
2023-05-14T20:12:39.677Z,18.05
2023-05-14T20:15:08.375Z,17.29
2023-05-14T20:17:38.457Z,18.13
2023-05-14T20:20:08.238Z,18.52
2023-05-14T20:22:38.194Z,18.58
2023-05-14T20:25:07.247Z,17.33
2023-05-14T20:27:36.656Z,18.43
2023-05-14T20:30:05.504Z,17.84
2023-05-14T20:32:34.052Z,18.01
2023-05-14T20:35:02.490Z,17.40
2023-05-14T20:37:32.275Z,16.78
2023-05-14T20:40:01.460Z,17.57
2023-05-14T20:42:30.042Z,17.79
2023-05-14T20:44:58.357Z,16.73
2023-05-14T20:47:28.940Z,16.68
2023-05-14T20:49:57.430Z,17.14
2023-05-14T20:52:25.858Z,18.51
2023-05-14T20:54:54.205Z,18.14
2023-05-14T20:57:22.698Z,17.92
2023-05-14T20:59:51.172Z,18.90
2023-05-14T21:02:19.629Z,18.17
2023-05-14T21:04:48.210Z,17.24
2023-05-14T21:07:16.633Z,17.42
2023-05-14T21:09:50.632Z,17.98
2023-05-14T21:12:19.318Z,17.77
2023-05-14T21:14:47.671Z,17.83
2023-05-14T21:17:16.176Z,18.11
2023-05-14T21:19:44.581Z,17.30
2023-05-14T21:22:14.088Z,18.45
2023-05-14T21:24:42.757Z,18.10
2023-05-14T21:27:11.441Z,17.84
2023-05-14T21:29:39.881Z,18.41
2023-05-14T21:32:08.361Z,19.06
2023-05-14T21:34:36.837Z,17.44
2023-05-14T21:37:07.397Z,17.97
2023-05-14T21:39:35.837Z,16.53
2023-05-14T21:42:04.407Z,17.75
2023-05-14T21:44:32.653Z,18.64
2023-05-14T21:47:01.975Z,17.53
2023-05-14T21:49:30.411Z,18.21
2023-05-14T21:52:00.692Z,18.30
2023-05-14T21:54:29.081Z,18.03
2023-05-14T21:56:57.513Z,17.62
2023-05-14T21:59:27.809Z,17.14
2023-05-14T22:02:06.753Z,17.24
2023-05-14T22:04:36.166Z,18.37
2023-05-14T22:07:04.656Z,18.26
2023-05-14T22:09:33.057Z,18.59
2023-05-14T22:12:01.811Z,17.48
2023-05-14T22:14:30.158Z,18.04
2023-05-14T22:16:58.793Z,18.45
2023-05-14T22:19:27.900Z,17.71
2023-05-14T22:21:56.499Z,17.92
2023-05-14T22:24:24.814Z,17.65
2023-05-14T22:26:53.195Z,17.31
2023-05-14T22:29:21.622Z,18.13
2023-05-14T22:31:51.064Z,17.40
2023-05-14T22:34:19.479Z,17.69
2023-05-14T22:36:47.903Z,17.07
2023-05-14T22:39:16.377Z,17.08
2023-05-14T22:41:44.726Z,16.81
2023-05-14T22:44:14.219Z,17.05
2023-05-14T22:46:42.772Z,16.89
2023-05-14T22:49:11.194Z,17.56
2023-05-14T22:51:39.685Z,17.32
2023-05-14T22:54:08.264Z,16.88
2023-05-14T22:56:37.543Z,17.58
2023-05-14T22:59:05.947Z,16.51
2023-05-14T23:01:34.406Z,16.08
2023-05-14T23:04:04.051Z,16.90
2023-05-14T23:06:32.446Z,17.10
2023-05-14T23:09:00.875Z,17.40
2023-05-14T23:11:29.282Z,17.15
2023-05-14T23:13:57.615Z,16.96
2023-05-14T23:16:26.200Z,17.46
2023-05-14T23:18:54.679Z,17.57
2023-05-14T23:21:23.649Z,16.88
2023-05-14T23:23:53.024Z,16.69
2023-05-14T23:26:21.775Z,16.96
2023-05-14T23:28:51.054Z,17.13
2023-05-14T23:31:19.457Z,17.19
2023-05-14T23:33:47.821Z,17.39
2023-05-14T23:36:17.155Z,16.56
2023-05-14T23:38:45.797Z,16.00
2023-05-14T23:41:14.208Z,15.50
2023-05-14T23:43:42.567Z,15.71
2023-05-14T23:46:11.138Z,15.60
2023-05-14T23:48:39.554Z,15.67
2023-05-14T23:51:07.885Z,15.85
2023-05-14T23:53:36.201Z,16.25
2023-05-14T23:56:04.614Z,16.69
2023-05-14T23:58:33.607Z,17.00
